Time;durP1;ratioP1;P1;durP2;ratioP2;P2;SDS_P1;SDS_P2;PMS_P1;PMS_P2;Temp;Humidity;BMP_temperature;BMP_pressure;BME280_temperature;BME280_humidity;BME280_pressure;Samples;Min_cycle;Max_cycle;Signal;HPM_P1;HPM_P2
2023/09/11 00:03:00;;;;;;;2.47;0.98;;;;;;;20.22;78.77;100378.84;10255022;28;96969;-87
2023/09/11 00:08:07;;;;;;;1.85;1.30;;;;;;;20.34;78.35;100371.75;10255625;28;96785;-89
2023/09/11 00:13:12;;;;;;;1.83;1.25;;;;;;;20.45;77.77;100368.22;10255858;28;96799;-88
2023/09/11 00:18:17;;;;;;;1.52;1.02;;;;;;;20.28;78.15;100373.03;10255659;28;96701;-88
2023/09/11 00:23:24;;;;;;;;;;;;;;;20.27;78.99;100371.31;10256235;28;97084;-89
2023/09/11 00:28:29;;;;;;;2.47;1.50;;;;;;;20.33;78.30;100370.91;10254864;28;97450;-89
2023/09/11 00:33:34;;;;;;;3.35;1.50;;;;;;;20.32;78.54;100377.19;10254861;28;96726;-88
2023/09/11 00:38:44;;;;;;;2.00;1.10;;;;;;;20.48;77.88;100371.50;10255727;28;97254;-89
2023/09/11 00:43:48;;;;;;;3.22;1.50;;;;;;;20.53;77.91;100361.31;10254833;28;97508;-88
2023/09/11 00:48:57;;;;;;;1.35;1.17;;;;;;;20.52;78.00;100358.75;10254546;28;96767;-89
2023/09/11 00:54:04;;;;;;;1.85;1.33;;;;;;;20.56;77.75;100365.56;10253512;28;97014;-88
2023/09/11 00:59:09;;;;;;;1.92;1.38;;;;;;;20.63;77.68;100362.28;10254145;28;97881;-89
2023/09/11 01:04:14;;;;;;;3.80;1.85;;;;;;;20.42;78.27;100360.44;10254115;28;96830;-88
2023/09/11 01:09:24;;;;;;;2.63;1.30;;;;;;;20.26;78.69;100350.06;10253955;28;96756;-89
2023/09/11 01:14:29;;;;;;;2.45;1.52;;;;;;;20.36;78.58;100348.41;10254171;28;97013;-88
2023/09/11 01:19:52;;;;;;;1.58;1.30;;;;;;;20.37;78.26;100344.78;10254263;28;96785;-89
2023/09/11 01:25:29;;;;;;;4.22;1.63;;;;;;;20.42;78.39;100347.06;10253481;28;96846;-89
2023/09/11 01:30:37;;;;;;;1.75;1.33;;;;;;;20.44;78.36;100343.31;10253678;28;96780;-89
2023/09/11 01:35:42;;;;;;;2.55;1.75;;;;;;;20.28;79.16;100330.28;10254007;28;96682;-91
2023/09/11 01:40:54;;;;;;;4.25;1.65;;;;;;;20.17;79.41;100330.25;10253784;28;96725;-91
2023/09/11 01:46:02;;;;;;;4.40;1.98;;;;;;;20.09;79.95;100332.69;10254433;28;97018;-92
2023/09/11 01:51:08;;;;;;;2.95;1.52;;;;;;;20.07;79.75;100328.41;10260652;28;96806;-90
2023/09/11 01:56:13;;;;;;;3.53;2.00;;;;;;;19.86;80.99;100322.91;10260225;28;96867;-90
2023/09/11 02:01:19;;;;;;;2.67;1.75;;;;;;;19.87;80.19;100313.94;10259854;28;96887;-88
2023/09/11 02:06:24;;;;;;;1.58;1.30;;;;;;;19.87;80.12;100313.09;10260035;28;97698;-90
2023/09/11 02:11:30;;;;;;;3.13;1.48;;;;;;;19.89;79.82;100314.66;10259654;28;97557;-88
2023/09/11 02:16:36;;;;;;;1.80;1.25;;;;;;;19.90;79.67;100308.34;10259549;28;96672;-90
2023/09/11 02:21:40;;;;;;;2.67;1.55;;;;;;;19.87;79.99;100311.28;10260746;28;97015;-88
2023/09/11 02:26:44;;;;;;;2.55;1.90;;;;;;;19.77;80.61;100309.41;10246507;28;97398;-90
2023/09/11 02:31:51;;;;;;;3.08;1.73;;;;;;;19.74;80.37;100305.16;10258488;28;96827;-89
2023/09/11 02:36:55;;;;;;;2.17;1.35;;;;;;;19.87;79.83;100307.75;10258000;28;97486;-88
2023/09/11 02:41:59;;;;;;;3.05;2.08;;;;;;;19.87;79.91;100297.06;10258585;28;96951;-90
2023/09/11 02:47:07;;;;;;;2.00;1.70;;;;;;;19.96;79.53;100304.38;10258177;28;97252;-89
2023/09/11 02:52:12;;;;;;;2.97;1.40;;;;;;;19.99;79.69;100301.44;10256883;28;96851;-90
2023/09/11 03:02:24;;;;;;;;;;;;;;;20.09;80.10;100302.44;10176516;28;97170;-89
2023/09/11 03:07:28;;;;;;;5.35;1.75;;;;;;;20.06;79.28;100300.88;10178047;28;96775;-89
2023/09/11 03:12:32;;;;;;;2.10;1.60;;;;;;;20.17;79.08;100305.34;10177938;28;97222;-90
2023/09/11 03:17:40;;;;;;;1.70;1.42;;;;;;;20.15;78.95;100304.63;10176961;28;96762;-90
2023/09/11 03:22:44;;;;;;;2.75;1.83;;;;;;;20.19;79.33;100298.91;10176922;28;97278;-90
2023/09/11 03:27:49;;;;;;;3.88;1.90;;;;;;;20.18;79.40;100304.41;10175347;28;96739;-90
2023/09/11 03:32:55;;;;;;;2.75;1.92;;;;;;;20.22;79.57;100295.19;10176540;28;96745;-88
2023/09/11 03:38:00;;;;;;;2.78;1.67;;;;;;;20.22;79.56;100293.34;10176540;28;96966;-90
2023/09/11 03:43:05;;;;;;;2.05;1.48;;;;;;;20.18;79.51;100294.56;10176376;28;97214;-90
2023/09/11 03:48:12;;;;;;;3.05;1.83;;;;;;;20.25;79.51;100298.44;10176077;28;97077;-90
2023/09/11 03:53:16;;;;;;;2.17;1.45;;;;;;;20.18;79.54;100296.38;10175799;28;96810;-90
2023/09/11 03:58:20;;;;;;;3.63;1.45;;;;;;;20.26;79.45;100294.81;10175090;28;97101;-90
2023/09/11 04:03:28;;;;;;;2.90;1.52;;;;;;;20.19;79.63;100296.25;10176595;28;96662;-90
2023/09/11 04:08:34;;;;;;;3.03;1.70;;;;;;;20.25;79.56;100298.44;10174411;28;96823;-90
2023/09/11 04:13:38;;;;;;;2.70;1.67;;;;;;;20.28;79.31;100290.19;10174950;28;96859;-89
2023/09/11 04:18:46;;;;;;;2.55;1.33;;;;;;;20.36;79.00;100286.94;10174052;28;97161;-89
2023/09/11 04:23:51;;;;;;;2.05;1.52;;;;;;;20.22;79.59;100292.50;10175095;28;96775;-88
2023/09/11 04:28:56;;;;;;;2.80;1.80;;;;;;;20.09;80.23;100286.41;10173988;28;97021;-88
2023/09/11 04:34:02;;;;;;;5.45;1.85;;;;;;;20.11;80.36;100293.34;10174319;28;96796;-89
2023/09/11 04:39:06;;;;;;;2.38;1.60;;;;;;;20.04;80.56;100291.25;10174547;28;97390;-88
2023/09/11 04:44:11;;;;;;;2.92;1.80;;;;;;;20.04;80.29;100286.78;10173527;28;96852;-89
2023/09/11 04:49:17;;;;;;;2.75;1.75;;;;;;;20.05;80.28;100283.13;10174249;28;96834;-89
2023/09/11 04:54:22;;;;;;;2.78;1.52;;;;;;;20.11;80.10;100293.34;10175108;28;96840;-88
2023/09/11 04:59:26;;;;;;;4.05;1.90;;;;;;;20.13;79.90;100294.03;10173338;28;96620;-89
2023/09/11 05:04:33;;;;;;;3.25;1.95;;;;;;;20.14;80.08;100298.44;10173538;28;96755;-88
2023/09/11 05:09:40;;;;;;;3.97;2.10;;;;;;;20.08;80.77;100295.41;10172888;28;97404;-87
2023/09/11 05:14:45;;;;;;;3.33;2.03;;;;;;;20.14;80.22;100295.75;10173407;28;96607;-89
2023/09/11 05:19:54;;;;;;;3.28;1.88;;;;;;;20.15;80.09;100301.97;10173216;28;96825;-89
2023/09/11 05:24:59;;;;;;;2.45;1.90;;;;;;;20.21;79.82;100297.00;10180676;28;97929;-89
2023/09/11 05:30:04;;;;;;;3.67;2.17;;;;;;;20.21;80.32;100297.00;10180089;28;97553;-89
2023/09/11 05:35:12;;;;;;;5.10;2.50;;;;;;;20.16;80.39;100299.16;10180011;28;96784;-88
2023/09/11 05:40:20;;;;;;;3.25;1.92;;;;;;;20.17;80.17;100294.66;10180307;28;97432;-88
2023/09/11 05:45:24;;;;;;;4.82;2.20;;;;;;;20.24;79.92;100307.44;10180767;28;96896;-89
2023/09/11 05:50:30;;;;;;;4.57;2.53;;;;;;;20.18;80.03;100302.56;10179424;28;97078;-88
2023/09/11 05:55:36;;;;;;;3.70;2.58;;;;;;;20.27;80.05;100307.19;10179659;28;96655;-89
2023/09/11 06:00:44;;;;;;;3.63;2.33;;;;;;;20.35;80.06;100311.97;10178131;28;97828;-89
2023/09/11 06:05:52;;;;;;;5.03;2.45;;;;;;;20.42;79.50;100309.66;10179218;28;96666;-89
2023/09/11 06:10:57;;;;;;;6.68;2.33;;;;;;;20.31;79.97;100313.16;10178483;28;96648;-89
2023/09/11 06:16:01;;;;;;;2.95;2.00;;;;;;;20.29;80.21;100321.28;10179252;28;97230;-89
2023/09/11 06:21:08;;;;;;;3.15;2.08;;;;;;;20.29;79.97;100318.59;10178793;28;97236;-89
2023/09/11 06:26:13;;;;;;;3.22;2.00;;;;;;;20.26;80.86;100326.88;10178241;28;97114;-88
2023/09/11 06:31:18;;;;;;;3.95;2.20;;;;;;;20.35;80.27;100328.00;10177979;28;98829;-89
2023/09/11 06:36:25;;;;;;;4.35;2.00;;;;;;;20.41;80.31;100329.34;10178785;28;96811;-89
2023/09/11 06:41:29;;;;;;;2.63;1.60;;;;;;;20.33;80.39;100336.16;10177914;28;96832;-89
2023/09/11 06:46:34;;;;;;;3.45;1.92;;;;;;;20.34;80.53;100343.19;10177733;28;96848;-89
2023/09/11 06:51:40;;;;;;;3.67;2.17;;;;;;;20.41;80.42;100346.22;10176871;28;96969;-89
2023/09/11 06:56:44;;;;;;;3.22;2.42;;;;;;;20.48;80.21;100351.97;10177701;28;96638;-88
2023/09/11 07:01:48;;;;;;;;;;;;;;;20.57;80.44;100356.59;10142487;28;96833;-89
2023/09/11 07:06:56;;;;;;;4.05;2.35;;;;;;;20.60;79.65;100348.31;10137944;28;97051;-88
2023/09/11 07:12:00;;;;;;;4.88;2.72;;;;;;;20.62;79.93;100351.72;10137157;28;97151;-88
2023/09/11 07:17:05;;;;;;;5.53;3.10;;;;;;;20.81;79.53;100360.81;10159878;28;97338;-88
2023/09/11 07:22:11;;;;;;;5.45;3.47;;;;;;;20.89;79.13;100362.88;10176723;28;96820;-88
2023/09/11 07:27:18;;;;;;;6.38;3.58;;;;;;;21.11;78.54;100369.06;10177100;28;96970;-88
2023/09/11 07:32:23;;;;;;;4.82;3.15;;;;;;;21.16;78.06;100360.69;10175930;28;97575;-88
2023/09/11 07:37:29;;;;;;;5.43;3.33;;;;;;;21.11;78.51;100366.38;10176546;28;96695;-88
2023/09/11 07:42:34;;;;;;;5.30;3.08;;;;;;;21.23;78.27;100370.78;10175650;28;97066;-88
2023/09/11 07:47:39;;;;;;;5.55;3.55;;;;;;;21.54;77.83;100370.94;10175948;28;97249;-88
2023/09/11 07:52:46;;;;;;;5.18;2.90;;;;;;;22.47;76.32;100369.09;10175916;28;97367;-88
2023/09/11 07:57:55;;;;;;;4.32;2.40;;;;;;;23.84;73.40;100373.78;10175481;28;97429;-88
2023/09/11 08:03:00;;;;;;;2.78;2.15;;;;;;;23.85;74.37;100368.25;10175831;28;97676;-88
2023/09/11 08:08:07;;;;;;;2.65;1.80;;;;;;;23.33;74.35;100382.88;10174868;28;97779;-87
2023/09/11 08:13:12;;;;;;;2.80;1.75;;;;;;;23.11;74.89;100388.47;10175605;28;97122;-88
2023/09/11 08:18:16;;;;;;;3.67;2.17;;;;;;;22.80;74.63;100380.59;10176112;28;96955;-87
2023/09/11 08:23:26;;;;;;;4.30;2.03;;;;;;;22.83;74.07;100380.31;10175424;28;97001;-88
2023/09/11 08:28:30;;;;;;;3.05;1.95;;;;;;;22.85;73.81;100394.47;10174639;28;97037;-88
2023/09/11 08:33:36;;;;;;;4.13;2.42;;;;;;;22.73;73.83;100396.34;10173835;28;97271;-86
2023/09/11 08:38:59;;;;;;;4.40;2.88;;;;;;;22.78;73.73;100399.53;10174650;28;96808;-87
2023/09/11 08:44:05;;;;;;;6.25;3.50;;;;;;;22.70;73.65;100398.47;10174143;28;97310;-87
2023/09/11 08:49:12;;;;;;;5.70;3.47;;;;;;;22.74;73.85;100402.56;10174181;28;97241;-86
2023/09/11 08:54:20;;;;;;;5.90;3.67;;;;;;;22.92;73.48;100412.56;10174281;28;96884;-86
2023/09/11 08:59:28;;;;;;;4.35;2.80;;;;;;;22.96;73.30;100410.44;10172971;28;96878;-86
2023/09/11 09:04:35;;;;;;;5.53;3.47;;;;;;;22.65;74.00;100406.88;10173111;28;96803;-86
2023/09/11 09:09:44;;;;;;;5.88;3.33;;;;;;;23.02;72.83;100418.84;10174763;28;97490;-86
2023/09/11 09:14:51;;;;;;;4.32;2.75;;;;;;;22.86;73.06;100431.88;10172903;28;96721;-87
2023/09/11 09:19:56;;;;;;;4.55;2.97;;;;;;;23.06;72.55;100428.28;10173193;28;96803;-86
2023/09/11 09:25:02;;;;;;;3.60;2.28;;;;;;;23.41;72.07;100436.75;10172071;28;97400;-86
2023/09/11 09:30:20;;;;;;;3.38;2.58;;;;;;;23.85;71.29;100432.75;10173824;28;96786;-86
2023/09/11 09:35:28;;;;;;;3.95;2.50;;;;;;;24.18;70.92;100429.66;10133069;28;97371;-87
2023/09/11 09:40:36;;;;;;;5.60;3.10;;;;;;;24.40;70.21;100440.13;10133577;28;96807;-87
2023/09/11 09:45:42;;;;;;;5.07;3.30;;;;;;;24.85;68.82;100432.22;10133859;28;97037;-87
2023/09/11 09:50:57;;;;;;;5.28;3.83;;;;;;;25.11;68.47;100433.28;10160965;28;96663;-86
2023/09/11 09:56:04;;;;;;;3.83;2.80;;;;;;;24.97;67.91;100431.06;10173013;28;97252;-87
2023/09/11 10:01:11;;;;;;;4.75;2.97;;;;;;;25.52;66.46;100421.19;10172668;28;96813;-87
2023/09/11 10:06:18;;;;;;;4.45;3.00;;;;;;;25.72;65.44;100417.38;10172953;28;96616;-86
2023/09/11 10:11:30;;;;;;;4.90;3.42;;;;;;;26.21;64.11;100415.97;10178900;28;96903;-86
2023/09/11 10:16:36;;;;;;;3.35;2.17;;;;;;;26.28;63.94;100408.97;10178195;28;96783;-88
2023/09/11 10:21:42;;;;;;;2.22;1.95;;;;;;;26.28;64.08;100409.78;10178902;28;97225;-87
2023/09/11 10:26:55;;;;;;;2.60;1.90;;;;;;;25.73;63.77;100416.34;10178943;28;97159;-86
2023/09/11 10:32:07;;;;;;;2.20;1.73;;;;;;;25.27;63.94;100405.72;10178360;28;97170;-86
2023/09/11 10:37:11;;;;;;;3.40;2.38;;;;;;;25.29;64.29;100411.81;10178027;28;96940;-83
2023/09/11 10:42:21;;;;;;;4.00;2.00;;;;;;;25.51;63.22;100406.00;10177895;28;97446;-86
2023/09/11 10:47:30;;;;;;;3.90;2.38;;;;;;;26.09;61.48;100404.56;10177771;28;96748;-82
2023/09/11 10:52:34;;;;;;;4.60;1.73;;;;;;;26.29;60.82;100403.41;10178625;28;97279;-85
2023/09/11 10:57:41;;;;;;;2.65;1.70;;;;;;;26.68;59.26;100393.91;10177595;28;96972;-86
2023/09/11 11:02:45;;;;;;;3.15;1.60;;;;;;;27.06;58.34;100395.31;10177803;28;96869;-83
2023/09/11 11:07:52;;;;;;;3.55;1.80;;;;;;;27.62;56.32;100389.25;10176481;28;96707;-84
2023/09/11 11:13:08;;;;;;;3.53;1.58;;;;;;;27.15;53.78;100388.94;10177934;28;97188;-83
2023/09/11 11:18:14;;;;;;;1.40;1.10;;;;;;;27.61;55.35;100380.31;10176584;28;96764;-86
2023/09/11 11:23:20;;;;;;;2.13;1.42;;;;;;;28.92;53.06;100370.97;10177765;28;97259;-85
2023/09/11 11:28:38;;;;;;;2.15;1.60;;;;;;;29.27;51.37;100374.22;10176727;28;97367;-83
2023/09/11 11:33:46;;;;;;;2.38;1.42;;;;;;;28.68;52.54;100370.16;10149326;28;97484;-85
2023/09/11 11:39:00;;;;;;;2.88;1.60;;;;;;;28.10;53.61;100364.97;10137116;28;96947;-85
2023/09/11 11:44:07;;;;;;;2.35;1.50;;;;;;;27.72;53.99;100362.91;10137106;28;96729;-83
2023/09/11 11:49:13;;;;;;;5.10;1.92;;;;;;;28.54;52.91;100346.50;10159718;28;97838;-85
2023/09/11 11:54:25;;;;;;;2.97;2.30;;;;;;;27.70;53.46;100352.28;10176724;28;97553;-85
2023/09/11 11:59:34;;;;;;;4.47;2.33;;;;;;;27.74;53.75;100353.66;10174476;28;96859;-86
2023/09/11 12:04:43;;;;;;;4.75;2.92;;;;;;;26.90;55.64;100352.81;10175334;28;97482;-85
2023/09/11 12:09:55;;;;;;;4.50;3.22;;;;;;;26.57;55.97;100347.44;10175367;28;96620;-84
2023/09/11 12:15:03;;;;;;;5.13;3.22;;;;;;;26.42;56.17;100349.88;10175410;28;97227;-86
2023/09/11 12:20:13;;;;;;;5.13;3.22;;;;;;;26.70;56.43;100343.28;10175765;28;97138;-85
2023/09/11 12:25:18;;;;;;;4.65;3.20;;;;;;;26.47;56.69;100336.75;10173851;28;97462;-85
2023/09/11 12:30:25;;;;;;;3.50;2.67;;;;;;;26.26;57.32;100340.81;10173644;28;97093;-84
2023/09/11 12:35:37;;;;;;;4.65;2.92;;;;;;;25.82;57.93;100331.88;10175715;28;97017;-83
2023/09/11 12:40:45;;;;;;;5.22;3.03;;;;;;;25.95;57.92;100340.41;10174072;28;96752;-85
2023/09/11 12:45:53;;;;;;;3.63;2.45;;;;;;;25.83;58.48;100331.69;10174222;28;96670;-83
2023/09/11 12:51:00;;;;;;;3.50;2.38;;;;;;;26.03;58.11;100328.81;10173334;28;96788;-85
2023/09/11 12:56:09;;;;;;;3.65;2.72;;;;;;;26.40;57.03;100332.16;10174024;28;96981;-86
2023/09/11 13:01:15;;;;;;;3.45;1.85;;;;;;;26.50;56.81;100325.66;10173635;28;96955;-82
2023/09/11 13:06:22;;;;;;;5.28;2.20;;;;;;;26.87;55.97;100318.06;10173716;28;96655;-83
2023/09/11 13:11:31;;;;;;;2.88;2.33;;;;;;;26.36;56.96;100322.66;10173492;28;96850;-84
2023/09/11 13:16:41;;;;;;;3.90;2.33;;;;;;;27.45;54.46;100318.09;10173300;28;96948;-84
2023/09/11 13:21:53;;;;;;;2.85;2.13;;;;;;;28.36;51.26;100306.09;10173769;28;97293;-85
2023/09/11 13:26:57;;;;;;;4.07;2.28;;;;;;;28.19;52.17;100303.59;10174031;28;97343;-86
2023/09/11 13:32:06;;;;;;;3.35;2.42;;;;;;;27.61;53.46;100317.25;10172713;28;96677;-85
2023/09/11 13:37:13;;;;;;;3.95;2.30;;;;;;;26.50;56.62;100324.78;10173349;28;97045;-85
2023/09/11 13:42:23;;;;;;;3.47;2.28;;;;;;;25.97;58.13;100322.19;10174525;28;96780;-86
2023/09/11 13:47:33;;;;;;;3.08;2.15;;;;;;;25.77;58.62;100315.31;10179837;28;96834;-85
2023/09/11 13:52:41;;;;;;;2.25;1.40;;;;;;;25.31;60.03;100313.66;10180052;28;96814;-84
2023/09/11 13:57:45;;;;;;;2.35;1.60;;;;;;;24.81;61.33;100306.97;10179953;28;97256;-83
2023/09/11 14:03:00;;;;;;;3.22;1.48;;;;;;;24.47;62.21;100305.88;10179470;28;97213;-85
2023/09/11 14:08:05;;;;;;;2.22;1.60;;;;;;;24.37;63.47;100300.53;10179259;28;96789;-84
2023/09/11 14:13:19;;;;;;;3.00;1.77;;;;;;;24.29;63.95;100292.34;10179295;28;96630;-84
2023/09/11 14:18:26;;;;;;;4.43;2.40;;;;;;;24.58;63.32;100295.75;10179926;28;96978;-84
2023/09/11 14:23:37;;;;;;;3.83;1.95;;;;;;;24.66;62.84;100285.13;10178534;28;96917;-84
2023/09/11 14:28:45;;;;;;;2.03;1.38;;;;;;;24.83;62.72;100293.41;10178425;28;97064;-86
2023/09/11 14:33:57;;;;;;;3.35;1.35;;;;;;;24.97;62.37;100284.78;10177322;28;97377;-85
2023/09/11 14:39:07;;;;;;;2.28;1.23;;;;;;;25.32;61.81;100285.72;10178434;28;97456;-85
2023/09/11 14:44:14;;;;;;;1.85;1.13;;;;;;;25.23;61.06;100264.22;10178030;28;96890;-86
2023/09/11 14:49:23;;;;;;;2.00;1.25;;;;;;;25.64;60.13;100279.78;10179070;28;97348;-86
2023/09/11 14:54:29;;;;;;;3.25;1.33;;;;;;;26.04;59.30;100277.41;10176951;28;98059;-84
2023/09/11 14:59:57;;;;;;;1.90;1.20;;;;;;;26.42;58.10;100279.69;10178605;28;97255;-83
2023/09/11 15:05:04;;;;;;;0.98;0.88;;;;;;;26.09;59.02;100283.19;10177548;28;97135;-83
2023/09/11 15:10:17;;;;;;;2.08;1.17;;;;;;;25.86;59.65;100276.63;10177943;28;97329;-86
2023/09/11 15:15:24;;;;;;;1.88;1.10;;;;;;;26.02;59.54;100278.59;10137730;28;97428;-84
2023/09/11 15:20:37;;;;;;;1.35;0.90;;;;;;;26.13;58.81;100275.63;10137786;28;97239;-87
2023/09/11 15:25:51;;;;;;;2.30;0.98;;;;;;;25.91;58.48;100279.69;10135816;28;96755;-83
2023/09/11 15:30:55;;;;;;;2.58;1.50;;;;;;;25.97;58.32;100289.00;10320280;22;97231;-87
2023/09/11 15:36:11;;;;;;;1.55;0.95;;;;;;;25.98;57.70;100285.31;10339474;28;97308;-86
2023/09/11 15:41:18;;;;;;;2.45;0.95;;;;;;;25.74;58.88;100280.59;10338604;28;97110;-87
2023/09/11 15:46:25;;;;;;;1.40;0.90;;;;;;;25.58;59.40;100281.25;10356113;28;97077;-86
2023/09/11 15:51:50;;;;;;;1.63;0.98;;;;;;;25.72;58.97;100269.97;10378903;28;96849;-85
2023/09/11 15:57:00;;;;;;;1.70;1.00;;;;;;;25.38;59.30;100268.09;10379954;28;97215;-85
2023/09/11 16:02:13;;;;;;;1.65;1.00;;;;;;;25.35;59.35;100271.94;10380616;28;97252;-87
2023/09/11 16:07:29;;;;;;;1.98;1.20;;;;;;;24.93;60.41;100270.78;10379407;28;97064;-86
2023/09/11 16:12:38;;;;;;;1.50;1.00;;;;;;;24.80;60.80;100268.47;10378948;28;96913;-86
2023/09/11 16:17:43;;;;;;;1.50;0.77;;;;;;;24.79;60.87;100274.84;10377666;28;96725;-87
2023/09/11 16:22:52;;;;;;;1.80;0.95;;;;;;;24.83;61.63;100277.25;10378749;28;96767;-86
2023/09/11 16:27:58;;;;;;;1.60;1.17;;;;;;;24.80;62.13;100273.00;10378556;28;97050;-86
2023/09/11 16:33:13;;;;;;;2.60;1.02;;;;;;;24.65;61.81;100275.34;10378679;28;97184;-87
2023/09/11 16:38:31;;;;;;;1.75;0.90;;;;;;;24.80;62.00;100273.00;10352142;28;97573;-87
2023/09/11 16:43:35;;;;;;;1.75;1.00;;;;;;;24.83;61.61;100272.69;10336513;28;97011;-87
2023/09/11 16:48:43;;;;;;;3.05;1.33;;;;;;;25.01;61.39;100268.22;10336233;28;97089;-87
2023/09/11 16:53:55;;;;;;;1.40;1.00;;;;;;;24.92;61.20;100282.56;10338302;28;96818;-87
2023/09/11 16:59:05;;;;;;;2.30;0.93;;;;;;;24.83;61.37;100280.78;10335980;28;97158;-84
2023/09/11 17:04:24;;;;;;;2.42;1.20;;;;;;;24.66;61.29;100281.56;10337008;28;96719;-87
2023/09/11 17:09:32;;;;;;;1.65;1.08;;;;;;;24.63;60.85;100285.44;10365844;28;97188;-84
2023/09/11 17:14:45;;;;;;;1.95;1.10;;;;;;;24.56;60.75;100283.47;10337151;28;96668;-87
2023/09/11 17:19:53;;;;;;;2.10;1.20;;;;;;;24.55;60.50;100285.31;10336446;28;96919;-84
2023/09/11 17:25:08;;;;;;;2.30;1.20;;;;;;;24.46;60.51;100290.75;10337140;28;96740;-88
2023/09/11 17:30:22;;;;;;;3.67;1.42;;;;;;;24.38;61.13;100287.91;10337622;28;97141;-87
2023/09/11 17:35:43;;;;;;;3.58;1.63;;;;;;;24.20;61.65;100295.91;10335962;28;96798;-84
2023/09/11 17:41:00;;;;;;;3.42;1.33;;;;;;;24.13;61.74;100302.00;10375348;28;96688;-87
2023/09/11 17:46:16;;;;;;;1.88;1.30;;;;;;;24.11;62.02;100298.59;10353541;28;96708;-85
2023/09/11 17:51:34;;;;;;;3.03;1.30;;;;;;;24.01;61.68;100306.69;10335873;28;96916;-88
2023/09/11 17:56:46;;;;;;;1.67;1.20;;;;;;;23.95;62.59;100304.56;10335755;28;97136;-87
2023/09/11 18:01:53;;;;;;;2.75;1.10;;;;;;;23.99;62.23;100316.75;10335054;28;96737;-88
2023/09/11 18:07:03;;;;;;;1.52;1.10;;;;;;;23.93;62.66;100328.06;10334899;28;96922;-87
2023/09/11 18:12:14;;;;;;;1.50;1.20;;;;;;;23.97;62.39;100328.63;10334430;28;97361;-88
2023/09/11 18:17:23;;;;;;;1.65;0.93;;;;;;;23.98;62.70;100338.41;10334517;28;96774;-88
2023/09/11 18:22:29;;;;;;;1.98;1.00;;;;;;;23.87;63.04;100335.84;10334395;28;97125;-87
2023/09/11 18:27:42;;;;;;;2.25;1.63;;;;;;;23.62;63.67;100330.06;10334744;28;98014;-88
2023/09/11 18:32:54;;;;;;;2.88;1.45;;;;;;;23.48;64.09;100340.34;10342066;28;96880;-88
2023/09/11 18:38:01;;;;;;;1.77;1.10;;;;;;;23.37;64.21;100346.69;10373702;28;96791;-88
2023/09/11 18:43:11;;;;;;;3.38;2.00;;;;;;;23.27;64.87;100345.81;10383006;28;97258;-88
2023/09/11 18:48:17;;;;;;;3.38;1.30;;;;;;;23.16;65.14;100339.75;10381969;28;97254;-88
2023/09/11 18:53:35;;;;;;;;;;;;;;;;;;;;;
2023/09/11 18:58:53;;;;;;;4.05;1.38;;;;;;;22.91;66.36;100354.50;10340836;28;96826;-89
2023/09/11 19:04:04;;;;;;;2.63;1.15;;;;;;;22.82;66.59;100357.16;10341260;28;96616;-84
2023/09/11 19:09:16;;;;;;;2.72;1.40;;;;;;;22.82;66.57;100367.91;10348335;28;96819;-88
2023/09/11 19:14:27;;;;;;;1.83;1.25;;;;;;;22.76;67.06;100379.97;10382253;28;97473;-88
2023/09/11 19:19:37;;;;;;;2.13;1.35;;;;;;;22.71;67.11;100384.91;10382542;28;96670;-89
2023/09/11 19:24:42;;;;;;;4.53;1.50;;;;;;;22.72;67.24;100391.09;10380821;28;97433;-88
2023/09/11 19:29:57;;;;;;;4.68;1.50;;;;;;;22.74;67.37;100392.69;10379767;28;97250;-88
2023/09/11 19:35:04;;;;;;;2.25;1.45;;;;;;;22.73;67.53;100401.72;10339421;28;97309;-88
2023/09/11 19:40:13;;;;;;;2.22;1.40;;;;;;;22.66;67.75;100408.59;10371440;28;97302;-89
2023/09/11 19:45:23;;;;;;;3.70;1.60;;;;;;;22.60;68.12;100417.16;10353991;28;96963;-89
2023/09/11 19:50:32;;;;;;;2.25;1.40;;;;;;;22.67;68.20;100412.13;10338760;28;96666;-89
2023/09/11 19:55:39;;;;;;;5.25;1.77;;;;;;;22.64;68.53;100418.63;10338345;28;97159;-89
2023/09/11 20:00:51;;;;;;;3.00;1.40;;;;;;;22.59;69.23;100426.22;10338149;28;96903;-89
2023/09/11 20:06:05;;;;;;;3.25;1.50;;;;;;;22.43;69.35;100424.00;10337924;28;97101;-89
2023/09/11 20:11:14;;;;;;;2.08;1.48;;;;;;;22.42;69.43;100419.59;10337570;28;97195;-89
2023/09/11 20:16:24;;;;;;;2.70;1.45;;;;;;;22.31;69.97;100422.38;10338031;28;97429;-89
2023/09/11 20:21:32;;;;;;;3.60;1.60;;;;;;;22.12;70.04;100416.88;10338368;28;96787;-89
2023/09/11 20:26:39;;;;;;;6.10;1.83;;;;;;;22.00;70.41;100417.91;10337519;28;96586;-89
2023/09/11 20:31:51;;;;;;;2.85;1.60;;;;;;;22.06;70.79;100422.72;10336614;28;96839;-89
2023/09/11 20:37:17;;;;;;;3.13;1.80;;;;;;;22.08;70.30;100426.13;10335426;28;97174;-89
2023/09/11 20:42:28;;;;;;;4.00;1.67;;;;;;;22.05;70.76;100430.91;10365339;28;96987;-89
2023/09/11 20:47:37;;;;;;;2.63;1.33;;;;;;;21.93;71.24;100427.41;10378164;28;96803;-89
2023/09/11 20:52:42;;;;;;;1.98;1.38;;;;;;;21.94;71.51;100430.91;10377517;28;96778;-89
2023/09/11 20:57:50;;;;;;;3.38;1.75;;;;;;;21.94;71.35;100425.56;10378516;28;96599;-89
2023/09/11 21:02:56;;;;;;;2.05;1.60;;;;;;;21.89;71.46;100428.63;10377042;28;96740;-89
2023/09/11 21:08:04;;;;;;;3.10;1.85;;;;;;;21.89;71.73;100425.94;10375549;28;97076;-89
2023/09/11 21:13:10;;;;;;;2.55;1.58;;;;;;;21.81;71.72;100438.28;10377969;28;96599;-89
2023/09/11 21:18:20;;;;;;;3.28;1.70;;;;;;;21.76;72.12;100435.13;10377381;28;96723;-89
2023/09/11 21:23:38;;;;;;;2.45;1.67;;;;;;;21.73;71.91;100443.44;10377153;28;97427;-89
2023/09/11 21:28:44;;;;;;;2.53;1.95;;;;;;;21.70;72.50;100462.41;10338826;28;96730;-89
2023/09/11 21:33:53;;;;;;;2.15;1.60;;;;;;;21.80;72.39;100452.63;10335392;28;96725;-89
2023/09/11 21:39:09;;;;;;;2.53;1.75;;;;;;;21.79;72.54;100446.44;10334693;28;96738;-89
2023/09/11 21:44:16;;;;;;;1.92;1.50;;;;;;;21.81;72.11;100446.31;10352181;28;97162;-89
2023/09/11 21:49:36;;;;;;;2.05;1.67;;;;;;;21.48;72.50;100452.63;10333964;28;96884;-89
2023/09/11 21:54:45;;;;;;;3.00;1.63;;;;;;;21.42;73.42;100453.97;10335107;28;97332;-89
2023/09/11 21:59:52;;;;;;;1.90;1.20;;;;;;;21.24;73.36;100442.06;10335217;28;96993;-89
2023/09/11 22:05:01;;;;;;;3.80;1.73;;;;;;;20.95;74.71;100437.28;10340319;28;96580;-89
2023/09/11 22:10:08;;;;;;;1.98;1.50;;;;;;;21.05;73.82;100439.13;10351896;28;98472;-88
2023/09/11 22:15:21;;;;;;;3.10;1.52;;;;;;;21.04;74.13;100436.56;10382642;28;96898;-89
2023/09/11 22:20:37;;;;;;;3.63;1.95;;;;;;;21.22;73.43;100444.03;10339857;28;97646;-89
2023/09/11 22:25:46;;;;;;;4.38;2.05;;;;;;;21.10;73.60;100446.78;10341839;28;96986;-88
2023/09/11 22:30:57;;;;;;;2.75;1.70;;;;;;;21.06;73.78;100451.53;10350992;28;96865;-88
2023/09/11 22:36:10;;;;;;;3.25;1.90;;;;;;;21.06;73.95;100456.88;10356431;28;97196;-89
2023/09/11 22:41:15;;;;;;;3.97;1.95;;;;;;;21.20;73.35;100445.97;10359171;28;96897;-89
2023/09/11 22:46:31;;;;;;;3.33;1.67;;;;;;;21.26;73.31;100449.94;10381595;28;96568;-89
2023/09/11 22:51:46;;;;;;;5.50;1.80;;;;;;;21.00;73.65;100451.19;10362803;28;97212;-89
2023/09/11 22:56:55;;;;;;;3.53;1.77;;;;;;;21.05;73.78;100451.66;10341295;28;96806;-89
2023/09/11 23:02:05;;;;;;;2.10;1.38;;;;;;;21.10;73.99;100455.66;10339823;28;96758;-88
2023/09/11 23:07:15;;;;;;;2.55;1.55;;;;;;;20.99;74.15;100453.00;10339997;28;96655;-89
2023/09/11 23:12:24;;;;;;;2.25;1.60;;;;;;;21.01;74.01;100450.19;10350982;28;96771;-89
2023/09/11 23:17:41;;;;;;;4.07;1.60;;;;;;;20.78;74.75;100448.47;10380954;28;96738;-89
2023/09/11 23:22:53;;;;;;;1.70;1.40;;;;;;;20.66;75.13;100450.28;10392636;28;96918;-88
2023/09/11 23:28:03;;;;;;;1.90;1.48;;;;;;;20.67;75.06;100445.81;10356052;28;96868;-88
2023/09/11 23:33:23;;;;;;;2.38;1.63;;;;;;;20.66;74.79;100444.06;10347735;28;97174;-88
2023/09/11 23:38:38;;;;;;;2.58;1.63;;;;;;;20.55;75.05;100444.91;10353129;28;97181;-88
2023/09/11 23:43:51;;;;;;;2.45;1.83;;;;;;;20.54;74.97;100453.06;10393529;28;96813;-89
2023/09/11 23:49:09;;;;;;;1.55;1.40;;;;;;;20.49;75.06;100455.25;10393211;28;96686;-89